Terminal Aerodrome Forecast
Issued by NWS Brownsville, TX

Home | Current Version | Previous Version | Text Only | Print | Product List | Glossary On
Versions: 1 2 3 4 5 6 7 8 9 10 11 12 13 14 15
000
FTUS44 KBRO 060134 AAA
TAFMFE
TAF AMD
KMFE 060134Z 0602/0624 14018KT P6SM FEW030
     FM060900 15013KT P6SM FEW035
     FM061500 15019G25KT P6SM BKN025
     FM061700 15020G27KT P6SM BKN035=

USA.gov is the U.S. government's official web portal to all federal, state and local government web resources and services.